createdAt,value
2023-07-22T00:00:50.177Z,74.13
2023-07-22T00:03:34.597Z,74.81
2023-07-22T00:06:11.192Z,75.00
2023-07-22T00:08:39.937Z,75.90
2023-07-22T00:11:08.602Z,75.94
2023-07-22T00:13:36.815Z,75.85
2023-07-22T00:16:09.194Z,75.52
2023-07-22T00:18:37.667Z,75.58
2023-07-22T00:21:05.769Z,75.49
2023-07-22T00:23:33.624Z,75.64
2023-07-22T00:26:01.612Z,76.10
2023-07-22T00:28:29.625Z,76.42
2023-07-22T00:30:58.752Z,76.14
2023-07-22T00:33:27.630Z,77.25
2023-07-22T00:35:56.597Z,77.45
2023-07-22T00:38:24.689Z,76.88
2023-07-22T00:40:52.694Z,77.44
2023-07-22T00:43:20.761Z,78.00
2023-07-22T00:45:48.851Z,77.08
2023-07-22T00:48:17.580Z,77.61
2023-07-22T00:50:45.529Z,77.66
2023-07-22T00:53:13.638Z,77.54
2023-07-22T00:55:42.740Z,78.15
2023-07-22T00:58:10.938Z,78.47
2023-07-22T01:00:39.050Z,78.41
2023-07-22T01:03:09.009Z,78.24
2023-07-22T01:05:38.318Z,77.76
2023-07-22T01:08:07.561Z,78.38
2023-07-22T01:10:35.868Z,78.03
2023-07-22T01:13:03.909Z,78.38
2023-07-22T01:15:32.639Z,78.88
2023-07-22T01:18:03.074Z,79.24
2023-07-22T01:20:31.767Z,78.58
2023-07-22T01:23:00.380Z,78.23
2023-07-22T01:25:30.727Z,79.21
2023-07-22T01:27:59.181Z,79.10
2023-07-22T01:30:28.868Z,79.62
2023-07-22T01:32:57.112Z,79.78
2023-07-22T01:35:25.258Z,79.98
2023-07-22T01:37:53.213Z,79.98
2023-07-22T01:40:22.000Z,79.47
2023-07-22T01:42:50.310Z,79.13
2023-07-22T01:45:18.491Z,79.19
2023-07-22T01:47:46.574Z,79.44
2023-07-22T01:50:14.696Z,79.01
2023-07-22T01:52:42.641Z,79.39
2023-07-22T01:55:12.444Z,80.21
2023-07-22T01:57:41.383Z,80.15
2023-07-22T02:00:12.328Z,80.03
2023-07-22T02:02:44.334Z,80.69
2023-07-22T02:05:13.690Z,81.32
2023-07-22T02:07:41.867Z,81.79
2023-07-22T02:10:10.941Z,81.39
2023-07-22T02:12:39.342Z,82.07
2023-07-22T02:15:08.100Z,82.43
2023-07-22T02:17:36.377Z,82.80
2023-07-22T02:20:06.062Z,82.26
2023-07-22T02:22:34.081Z,81.77
2023-07-22T02:25:02.092Z,81.27
2023-07-22T02:27:30.079Z,81.97
2023-07-22T02:29:58.065Z,82.16
2023-07-22T02:32:26.366Z,82.26
2023-07-22T02:34:54.550Z,82.54
2023-07-22T02:37:22.412Z,82.71
2023-07-22T02:39:50.424Z,82.11
2023-07-22T02:42:18.345Z,82.06
2023-07-22T02:44:46.357Z,81.63
2023-07-22T02:47:15.370Z,81.65
2023-07-22T02:49:44.159Z,81.56
2023-07-22T02:52:12.110Z,81.60
2023-07-22T02:54:43.327Z,81.74
2023-07-22T02:57:12.017Z,81.71
2023-07-22T02:59:40.087Z,81.18
2023-07-22T03:02:08.022Z,81.22
2023-07-22T03:04:35.958Z,80.98
2023-07-22T03:07:04.327Z,80.96
2023-07-22T03:09:32.460Z,81.07
2023-07-22T03:12:00.435Z,80.69
2023-07-22T03:14:28.586Z,80.45
2023-07-22T03:16:56.688Z,80.54
2023-07-22T03:19:24.816Z,80.78
2023-07-22T03:21:52.989Z,80.74
2023-07-22T03:24:24.295Z,80.79
2023-07-22T03:26:53.186Z,81.11
2023-07-22T03:29:21.252Z,81.60
2023-07-22T03:31:49.380Z,81.52
2023-07-22T03:34:17.313Z,81.44
2023-07-22T03:36:45.300Z,82.04
2023-07-22T03:39:13.281Z,82.37
2023-07-22T03:41:41.261Z,83.35
2023-07-22T03:44:09.391Z,83.88
2023-07-22T03:46:37.347Z,84.20
2023-07-22T03:49:05.838Z,84.49
2023-07-22T03:51:34.400Z,84.59
2023-07-22T03:54:02.366Z,84.83
2023-07-22T03:56:30.476Z,84.44
2023-07-22T03:58:58.644Z,84.10
2023-07-22T04:01:26.638Z,84.39
2023-07-22T04:03:54.612Z,84.40
2023-07-22T04:06:22.473Z,84.20
2023-07-22T04:08:50.604Z,84.39
2023-07-22T04:11:18.708Z,84.55
2023-07-22T04:13:46.815Z,84.29
2023-07-22T04:16:14.778Z,84.52
2023-07-22T04:18:42.807Z,84.17
2023-07-22T04:21:10.985Z,84.03
2023-07-22T04:23:39.116Z,83.66
2023-07-22T04:26:08.887Z,84.08
2023-07-22T04:28:37.058Z,84.16
2023-07-22T04:31:07.105Z,84.02
2023-07-22T04:33:37.034Z,83.96
2023-07-22T04:36:06.076Z,84.26
2023-07-22T04:38:34.145Z,84.15
2023-07-22T04:41:04.873Z,84.00
2023-07-22T04:43:33.892Z,83.95
2023-07-22T04:46:02.111Z,83.80
2023-07-22T04:48:30.969Z,83.95
2023-07-22T04:50:58.955Z,84.08
2023-07-22T04:53:27.122Z,84.25
2023-07-22T04:55:56.379Z,84.18
2023-07-22T04:58:25.396Z,84.31
2023-07-22T05:00:53.301Z,84.61
2023-07-22T05:03:21.478Z,84.60
2023-07-22T05:05:50.225Z,84.40
2023-07-22T05:08:18.301Z,84.41
2023-07-22T05:10:46.751Z,84.52
2023-07-22T05:13:14.801Z,84.50
2023-07-22T05:15:42.790Z,84.80
2023-07-22T05:18:10.969Z,84.77
2023-07-22T05:20:40.337Z,84.79
2023-07-22T05:23:08.736Z,84.96
2023-07-22T05:25:36.835Z,84.69
2023-07-22T05:28:04.989Z,84.52
2023-07-22T05:30:35.800Z,84.47
2023-07-22T05:33:04.630Z,84.72
2023-07-22T05:35:32.794Z,84.62
2023-07-22T05:38:01.853Z,84.61
2023-07-22T05:40:29.966Z,84.48
2023-07-22T05:42:58.064Z,84.04
2023-07-22T05:45:26.087Z,83.44
2023-07-22T05:47:54.109Z,83.34
2023-07-22T05:50:22.241Z,83.18
2023-07-22T05:52:50.417Z,83.04
2023-07-22T05:55:18.481Z,83.19
2023-07-22T05:57:46.399Z,83.01
2023-07-22T06:00:14.867Z,82.94
2023-07-22T06:02:43.229Z,82.57
2023-07-22T06:05:11.332Z,82.10
2023-07-22T06:07:39.459Z,81.18
2023-07-22T06:10:09.426Z,81.17
2023-07-22T06:12:37.452Z,80.82
2023-07-22T06:15:05.957Z,80.29
2023-07-22T06:17:34.073Z,80.07
2023-07-22T06:20:02.782Z,79.72
2023-07-22T06:22:30.964Z,79.16
2023-07-22T06:24:59.096Z,78.87
2023-07-22T06:27:27.150Z,78.78
2023-07-22T06:29:56.349Z,77.62
2023-07-22T06:32:24.382Z,76.87
2023-07-22T06:34:52.495Z,76.62
2023-07-22T06:37:20.561Z,75.94
2023-07-22T06:39:48.523Z,75.63
2023-07-22T06:42:16.376Z,75.48
2023-07-22T06:44:44.939Z,75.83
2023-07-22T06:47:13.065Z,75.52
2023-07-22T06:49:43.560Z,74.85
2023-07-22T06:52:14.290Z,73.80
2023-07-22T06:54:42.211Z,74.08
2023-07-22T06:57:10.451Z,73.59
2023-07-22T06:59:38.579Z,73.42
2023-07-22T07:02:06.732Z,73.74
2023-07-22T07:04:34.807Z,73.78
2023-07-22T07:07:03.857Z,73.73
2023-07-22T07:09:31.935Z,73.44
2023-07-22T07:11:59.977Z,72.94
2023-07-22T07:14:28.063Z,72.69
2023-07-22T07:16:55.996Z,72.71
2023-07-22T07:19:23.998Z,71.93
2023-07-22T07:21:52.365Z,71.81
2023-07-22T07:24:20.932Z,71.16
2023-07-22T07:26:48.980Z,71.61
2023-07-22T07:29:28.567Z,71.16
2023-07-22T07:32:05.683Z,69.92
2023-07-22T07:34:33.571Z,69.39
2023-07-22T07:37:01.662Z,68.67
2023-07-22T07:39:30.266Z,68.86
2023-07-22T07:41:58.216Z,67.99
2023-07-22T07:44:26.242Z,67.94
2023-07-22T07:46:54.203Z,67.61
2023-07-22T07:49:22.127Z,67.68
2023-07-22T07:51:50.009Z,68.08
2023-07-22T07:54:18.001Z,67.05
2023-07-22T07:56:46.028Z,66.39
2023-07-22T07:59:13.951Z,65.56
2023-07-22T08:01:43.340Z,65.84
2023-07-22T08:04:11.466Z,65.63
2023-07-22T08:06:39.634Z,64.88
2023-07-22T08:09:07.744Z,65.77
2023-07-22T08:11:35.620Z,65.36
2023-07-22T08:14:03.638Z,64.40
2023-07-22T08:16:31.897Z,63.51
2023-07-22T08:19:00.193Z,61.11
2023-07-22T08:21:28.244Z,60.86
2023-07-22T08:23:56.300Z,61.77
2023-07-22T08:26:24.563Z,62.80
2023-07-22T08:28:52.797Z,61.44
2023-07-22T08:31:20.903Z,61.52
2023-07-22T08:33:49.113Z,60.96
2023-07-22T08:36:17.080Z,61.12
2023-07-22T08:38:45.074Z,61.62
2023-07-22T08:41:17.424Z,61.15
2023-07-22T08:43:47.922Z,59.55
2023-07-22T08:46:16.929Z,58.87
2023-07-22T08:48:48.004Z,59.67
2023-07-22T08:51:15.875Z,60.04
2023-07-22T08:53:47.995Z,60.15
2023-07-22T08:56:21.649Z,60.78
2023-07-22T08:58:52.052Z,61.22
2023-07-22T09:01:20.266Z,61.08
2023-07-22T09:03:51.746Z,61.10
2023-07-22T09:06:20.815Z,61.17
2023-07-22T09:08:49.220Z,60.60
2023-07-22T09:11:17.280Z,61.46
2023-07-22T09:13:55.876Z,61.16
2023-07-22T09:16:32.202Z,59.75
2023-07-22T09:19:01.016Z,60.61
2023-07-22T09:21:31.764Z,60.32
2023-07-22T09:23:59.635Z,58.63
2023-07-22T09:26:27.745Z,58.42
2023-07-22T09:28:59.509Z,56.01
2023-07-22T09:31:29.594Z,55.70
2023-07-22T09:34:10.858Z,55.05
2023-07-22T09:36:54.858Z,56.46
2023-07-22T09:39:23.715Z,56.74
2023-07-22T09:41:54.007Z,57.08
2023-07-22T09:44:23.306Z,55.41
2023-07-22T09:46:51.757Z,54.53
2023-07-22T09:49:20.033Z,53.54
2023-07-22T09:51:57.014Z,51.50
2023-07-22T09:54:37.707Z,51.23
2023-07-22T09:57:07.415Z,51.01
2023-07-22T09:59:35.601Z,51.86
2023-07-22T10:02:04.336Z,51.49
2023-07-22T10:04:35.208Z,52.53
2023-07-22T10:07:04.995Z,53.56
2023-07-22T10:09:35.176Z,52.85
2023-07-22T10:12:04.783Z,52.82
2023-07-22T10:14:36.232Z,53.12
2023-07-22T10:17:07.697Z,52.41
2023-07-22T10:19:36.173Z,51.75
2023-07-22T10:22:05.535Z,51.83
2023-07-22T10:24:33.943Z,52.70
2023-07-22T10:27:02.174Z,51.31
2023-07-22T10:29:30.837Z,51.01
2023-07-22T10:31:58.927Z,50.01
2023-07-22T10:34:26.932Z,51.35
2023-07-22T10:36:58.428Z,50.30
2023-07-22T10:39:28.139Z,50.89
2023-07-22T10:42:08.088Z,51.97
2023-07-22T10:44:40.330Z,51.06
2023-07-22T10:47:09.148Z,50.40
2023-07-22T10:49:45.946Z,49.96
2023-07-22T10:52:15.467Z,49.93
2023-07-22T10:54:43.862Z,50.34
2023-07-22T10:57:18.083Z,49.13
2023-07-22T10:59:51.452Z,49.35
2023-07-22T11:02:30.879Z,49.59
2023-07-22T11:05:03.213Z,49.17
2023-07-22T11:07:43.660Z,49.33
2023-07-22T11:10:14.614Z,49.63
2023-07-22T11:12:45.156Z,49.25
2023-07-22T11:15:17.068Z,49.33
2023-07-22T11:17:45.123Z,48.99
2023-07-22T11:20:13.315Z,49.90
2023-07-22T11:22:42.148Z,49.83
2023-07-22T11:25:10.870Z,49.91
2023-07-22T11:27:39.185Z,49.86
2023-07-22T11:30:08.501Z,49.62
2023-07-22T11:32:36.524Z,49.50
2023-07-22T11:35:04.931Z,48.47
2023-07-22T11:37:34.926Z,49.01
2023-07-22T11:40:03.368Z,48.79
2023-07-22T11:42:31.864Z,48.69
2023-07-22T11:44:59.954Z,48.67
2023-07-22T11:47:34.173Z,48.94
2023-07-22T11:50:02.565Z,48.59
2023-07-22T11:52:30.601Z,49.01
2023-07-22T11:55:04.502Z,49.50
2023-07-22T11:57:32.653Z,48.58
2023-07-22T12:00:00.705Z,45.23
2023-07-22T12:02:38.553Z,46.18
2023-07-22T12:05:07.179Z,44.81
2023-07-22T12:07:37.361Z,45.52
2023-07-22T12:10:11.437Z,44.86
2023-07-22T12:12:47.630Z,45.36
2023-07-22T12:15:24.959Z,43.42
2023-07-22T12:17:54.617Z,45.00
2023-07-22T12:20:27.728Z,45.15
2023-07-22T12:22:57.754Z,45.00
2023-07-22T12:25:26.105Z,43.42
2023-07-22T12:30:57.444Z,44.37
2023-07-22T12:33:33.658Z,44.06
2023-07-22T12:36:08.885Z,44.53
2023-07-22T12:38:37.401Z,44.43
2023-07-22T12:41:05.288Z,44.08
2023-07-22T12:43:33.330Z,44.76
2023-07-22T12:46:01.397Z,44.68
2023-07-22T12:48:29.654Z,43.92
2023-07-22T12:50:57.736Z,45.01
2023-07-22T12:53:26.723Z,45.30
2023-07-22T12:55:54.767Z,44.81
2023-07-22T12:58:22.872Z,44.47
2023-07-22T13:00:52.941Z,44.98
2023-07-22T13:03:21.146Z,44.95
2023-07-22T13:05:49.781Z,45.14
2023-07-22T13:08:18.094Z,44.93
2023-07-22T13:10:48.370Z,45.34
2023-07-22T13:13:16.438Z,45.12
2023-07-22T13:15:47.797Z,44.75
2023-07-22T13:18:18.024Z,44.72
2023-07-22T13:20:46.114Z,44.65
2023-07-22T13:23:14.075Z,44.49
2023-07-22T13:25:42.085Z,44.62
2023-07-22T13:28:10.228Z,44.66
2023-07-22T13:30:38.282Z,44.94
2023-07-22T13:33:06.245Z,43.89
2023-07-22T13:35:34.581Z,43.52
2023-07-22T13:38:02.674Z,44.54
2023-07-22T13:40:30.584Z,43.80
2023-07-22T13:42:58.686Z,42.97
2023-07-22T13:45:27.764Z,42.98
2023-07-22T13:47:55.795Z,43.29
2023-07-22T13:50:23.863Z,43.89
2023-07-22T13:52:52.252Z,44.65
2023-07-22T13:55:20.740Z,44.45
2023-07-22T13:57:48.834Z,43.78
2023-07-22T14:00:17.198Z,43.55
2023-07-22T14:02:45.259Z,43.87
2023-07-22T14:05:13.359Z,43.18
2023-07-22T14:07:41.365Z,41.94
2023-07-22T14:10:10.417Z,41.13
2023-07-22T14:12:38.385Z,40.26
2023-07-22T14:15:07.532Z,39.82
2023-07-22T14:17:35.429Z,41.05
2023-07-22T14:20:06.010Z,41.56
2023-07-22T14:22:34.459Z,41.87
2023-07-22T14:25:02.473Z,41.60
2023-07-22T14:27:30.524Z,41.58
2023-07-22T14:29:58.423Z,43.16
2023-07-22T14:32:26.366Z,43.82
2023-07-22T14:34:54.213Z,43.44
2023-07-22T14:37:22.790Z,43.36
2023-07-22T14:39:50.953Z,43.97
2023-07-22T14:42:18.975Z,44.12
2023-07-22T14:44:47.552Z,43.76
2023-07-22T14:47:15.455Z,43.75
2023-07-22T14:49:43.470Z,42.82
2023-07-22T14:52:11.420Z,42.67
2023-07-22T14:54:39.671Z,42.93
2023-07-22T14:57:07.873Z,43.25
2023-07-22T14:59:36.008Z,43.08
2023-07-22T15:02:04.195Z,42.06
2023-07-22T15:04:32.880Z,42.16
2023-07-22T15:07:00.917Z,42.82
2023-07-22T15:09:29.041Z,42.46
2023-07-22T15:11:57.030Z,41.08
2023-07-22T15:14:24.915Z,41.37
2023-07-22T15:16:52.852Z,41.08
2023-07-22T15:19:20.775Z,41.63
2023-07-22T15:21:48.637Z,41.75
2023-07-22T15:24:16.628Z,42.16
2023-07-22T15:26:44.548Z,42.58
2023-07-22T15:29:12.599Z,42.65
2023-07-22T15:31:40.714Z,42.68
2023-07-22T15:34:09.003Z,42.51
2023-07-22T15:36:37.006Z,42.31
2023-07-22T15:39:04.858Z,42.42
2023-07-22T15:41:32.907Z,41.51
2023-07-22T15:44:00.979Z,42.04
2023-07-22T15:46:28.968Z,42.50
2023-07-22T15:48:57.047Z,42.96
2023-07-22T15:51:25.283Z,43.58
2023-07-22T15:53:53.517Z,43.58
2023-07-22T15:56:21.599Z,43.22
2023-07-22T15:58:49.602Z,43.34
2023-07-22T16:01:17.793Z,43.58
2023-07-22T16:03:46.148Z,44.11
2023-07-22T16:06:27.020Z,44.58
2023-07-22T16:09:00.372Z,44.26
2023-07-22T16:11:28.765Z,43.87
2023-07-22T16:13:57.040Z,43.31
2023-07-22T16:16:24.884Z,43.27
2023-07-22T16:18:54.751Z,43.71
2023-07-22T16:21:22.828Z,43.35
2023-07-22T16:23:50.842Z,43.30
2023-07-22T16:26:18.873Z,43.29
2023-07-22T16:28:47.023Z,43.44
2023-07-22T16:31:16.314Z,43.74
2023-07-22T16:33:50.262Z,43.80
2023-07-22T16:36:18.867Z,43.75
2023-07-22T16:38:46.781Z,43.82
2023-07-22T16:41:14.780Z,43.75
2023-07-22T16:43:42.866Z,43.75
2023-07-22T16:46:10.947Z,43.69
2023-07-22T16:48:39.577Z,43.50
2023-07-22T16:51:07.739Z,42.89
2023-07-22T16:53:35.843Z,43.22
2023-07-22T16:56:03.923Z,42.65
2023-07-22T16:58:31.954Z,42.54
2023-07-22T17:01:00.697Z,43.10
2023-07-22T17:03:31.816Z,43.01
2023-07-22T17:05:59.899Z,43.13
2023-07-22T17:08:28.251Z,43.24
2023-07-22T17:10:56.444Z,43.66
2023-07-22T17:13:24.461Z,43.97
2023-07-22T17:15:52.365Z,43.73
2023-07-22T17:18:20.247Z,43.81
2023-07-22T17:20:48.398Z,43.56
2023-07-22T17:23:17.459Z,43.80
2023-07-22T17:25:45.449Z,43.94
2023-07-22T17:28:13.380Z,43.76
2023-07-22T17:30:41.233Z,44.24
2023-07-22T17:33:09.368Z,43.69
2023-07-22T17:35:37.841Z,44.11
2023-07-22T17:38:06.315Z,44.11
2023-07-22T17:40:34.258Z,44.18
2023-07-22T17:43:02.334Z,44.29
2023-07-22T17:45:30.398Z,43.87
2023-07-22T17:47:58.450Z,44.24
2023-07-22T17:50:26.501Z,44.31
2023-07-22T17:52:54.505Z,44.18
2023-07-22T17:55:22.529Z,44.40
2023-07-22T17:57:50.657Z,44.33
2023-07-22T18:00:18.709Z,44.44
2023-07-22T18:02:46.636Z,44.56
2023-07-22T18:05:14.763Z,44.73
2023-07-22T18:07:42.822Z,44.77
2023-07-22T18:10:11.172Z,44.72
2023-07-22T18:12:39.371Z,44.52
2023-07-22T18:15:07.845Z,44.93
2023-07-22T18:17:36.077Z,45.03
2023-07-22T18:20:07.174Z,45.14
2023-07-22T18:22:36.363Z,45.19
2023-07-22T18:25:05.253Z,45.50
2023-07-22T18:27:33.176Z,45.65
2023-07-22T18:30:01.158Z,45.70
2023-07-22T18:32:30.297Z,45.93
2023-07-22T18:34:58.679Z,46.05
2023-07-22T18:37:28.055Z,46.17
2023-07-22T18:39:56.439Z,46.16
2023-07-22T18:42:24.477Z,46.38
2023-07-22T18:44:52.402Z,46.53
2023-07-22T18:47:20.481Z,46.74
2023-07-22T18:49:48.841Z,46.98
2023-07-22T18:52:16.869Z,47.08
2023-07-22T18:54:45.238Z,47.34
2023-07-22T18:57:13.510Z,48.43
2023-07-22T18:59:41.500Z,48.16
2023-07-22T19:02:09.791Z,48.51
2023-07-22T19:04:40.370Z,49.23
2023-07-22T19:07:09.761Z,49.53
2023-07-22T19:09:38.340Z,49.81
2023-07-22T19:12:06.682Z,49.91
2023-07-22T19:14:34.773Z,50.14
2023-07-22T19:17:02.865Z,50.64
2023-07-22T19:19:30.908Z,50.76
2023-07-22T19:22:01.439Z,51.07
2023-07-22T19:24:29.531Z,51.31
2023-07-22T19:26:57.574Z,51.43
2023-07-22T19:29:25.553Z,51.82
2023-07-22T19:31:53.764Z,52.00
2023-07-22T19:34:21.685Z,52.17
2023-07-22T19:36:49.732Z,52.55
2023-07-22T19:39:20.995Z,52.83
2023-07-22T19:41:49.047Z,53.50
2023-07-22T19:44:17.046Z,53.35
2023-07-22T19:46:44.998Z,53.61
2023-07-22T19:49:13.040Z,54.02
2023-07-22T19:51:41.620Z,54.16
2023-07-22T19:54:15.662Z,54.60
2023-07-22T19:56:51.584Z,54.94
2023-07-22T19:59:26.110Z,55.06
2023-07-22T20:02:00.091Z,55.33
2023-07-22T20:04:50.211Z,55.52
2023-07-22T20:07:36.821Z,55.94
2023-07-22T20:10:14.302Z,55.94
2023-07-22T20:12:46.367Z,56.51
2023-07-22T20:15:14.528Z,56.32
2023-07-22T20:17:42.708Z,56.83
2023-07-22T20:20:10.911Z,57.03
2023-07-22T20:22:39.078Z,57.60
2023-07-22T20:25:07.328Z,57.83
2023-07-22T20:27:35.499Z,57.80
2023-07-22T20:30:07.202Z,57.95
2023-07-22T20:32:36.943Z,58.03
2023-07-22T20:35:10.547Z,58.22
2023-07-22T20:37:39.380Z,59.02
2023-07-22T20:40:08.150Z,59.00
2023-07-22T20:42:36.151Z,59.02
2023-07-22T20:45:04.492Z,59.47
2023-07-22T20:47:32.468Z,59.80
2023-07-22T20:50:00.650Z,60.00
2023-07-22T20:52:28.831Z,60.16
2023-07-22T20:54:56.946Z,60.26
2023-07-22T20:57:24.847Z,60.19
2023-07-22T20:59:56.854Z,60.53
2023-07-22T21:02:25.063Z,60.65
2023-07-22T21:04:54.404Z,60.69
2023-07-22T21:07:22.519Z,61.34
2023-07-22T21:09:50.600Z,61.37
2023-07-22T21:12:18.580Z,61.21
2023-07-22T21:14:46.555Z,61.48
2023-07-22T21:17:14.576Z,61.43
2023-07-22T21:19:42.671Z,61.44
2023-07-22T21:22:11.178Z,61.53
2023-07-22T21:24:39.396Z,61.73
2023-07-22T21:27:07.405Z,61.72
2023-07-22T21:29:35.590Z,61.81
2023-07-22T21:32:03.762Z,61.98
2023-07-22T21:34:31.809Z,62.22
2023-07-22T21:36:59.787Z,62.14
2023-07-22T21:39:27.853Z,61.96
2023-07-22T21:41:55.942Z,62.32
2023-07-22T21:44:23.956Z,62.51
2023-07-22T21:46:51.993Z,62.74
2023-07-22T21:49:20.133Z,62.89
2023-07-22T21:51:48.048Z,63.23
2023-07-22T21:54:16.009Z,63.37
2023-07-22T21:56:43.976Z,63.26
2023-07-22T21:59:12.428Z,63.00
2023-07-22T22:01:40.652Z,63.06
2023-07-22T22:04:08.775Z,63.17
2023-07-22T22:06:36.778Z,63.05
2023-07-22T22:09:04.756Z,63.48
2023-07-22T22:11:32.868Z,63.30
2023-07-22T22:14:00.828Z,63.76
2023-07-22T22:16:28.772Z,63.52
2023-07-22T22:18:56.909Z,63.57
2023-07-22T22:21:25.271Z,63.70
2023-07-22T22:23:53.449Z,63.62
2023-07-22T22:26:21.534Z,63.98
2023-07-22T22:28:49.747Z,63.85
2023-07-22T22:31:18.300Z,64.13
2023-07-22T22:33:46.400Z,64.19
2023-07-22T22:36:14.503Z,64.04
2023-07-22T22:38:42.446Z,64.71
2023-07-22T22:41:10.373Z,64.41
2023-07-22T22:43:38.945Z,64.77
2023-07-22T22:46:06.923Z,64.56
2023-07-22T22:48:34.922Z,64.78
2023-07-22T22:51:03.010Z,64.91
2023-07-22T22:53:31.056Z,65.04
2023-07-22T22:55:59.813Z,65.31
2023-07-22T22:58:27.798Z,65.26
2023-07-22T23:00:55.883Z,64.95
2023-07-22T23:03:23.937Z,65.02
2023-07-22T23:05:52.193Z,65.50
2023-07-22T23:08:20.201Z,66.26
2023-07-22T23:10:49.186Z,65.66
2023-07-22T23:13:17.176Z,65.96
2023-07-22T23:15:47.311Z,66.66
2023-07-22T23:18:18.371Z,66.61
2023-07-22T23:20:46.985Z,66.10
2023-07-22T23:23:14.927Z,66.31
2023-07-22T23:25:42.892Z,66.32
2023-07-22T23:28:10.892Z,66.20
2023-07-22T23:30:39.138Z,66.51
2023-07-22T23:33:07.714Z,66.65
2023-07-22T23:35:35.635Z,67.06
2023-07-22T23:38:05.097Z,66.72
2023-07-22T23:40:33.347Z,66.48
2023-07-22T23:43:01.354Z,67.03
2023-07-22T23:45:29.393Z,66.77
2023-07-22T23:47:57.344Z,67.10
2023-07-22T23:50:25.370Z,66.98
2023-07-22T23:52:53.292Z,66.88
2023-07-22T23:55:21.234Z,66.97
2023-07-22T23:57:49.165Z,67.67
